NWS Home NWS Lubbock West Texas Mesonet Day over Day changes as of 0629 PM, Sat May 25, 2019

Latest   N   C   S   Daily Sum   3hrΔ   24hrΔ   Soil Data 
Site Map   24hr Precip   72hr Precip   Google Plot


Station Time of Last Temp Today Temp Yesterday Delta-T Dewpoint Today Dewpoint Yesterday Delta-Td Delta-Pressure (mB)
Reese Center  06:25 PM 78.3 64.8 13.5 65.8 60.6 5.2 1.6
Abernathy  06:25 PM 73.4 62.2 11.3 66.4 59.3 7.2 2
Plainview  06:25 PM 61.8 61.8 -0 61.2 60.2 1 3.2
Tahoka  06:25 PM 80.3 80.5 -0.2 65.9 67.8 -1.9 1.5
Slaton  06:25 PM 79.2 67.4 11.8 66.6 62.7 3.9 1.4
Levelland  06:25 PM 81.3 78 3.3 64.4 62.6 1.8 1.8
Roaring Springs  06:25 PM 76.2 60.6 15.7 69.9 59.3 10.6 -0.3
Floydada  06:25 PM 74 61.4 12.6 67.4 60.7 6.7 1.4
Ralls  06:25 PM 75 61.9 13.2 66 59.9 6.1 0.7
Brownfield  06:25 PM 83.2 83.7 -0.5 64.7 66.1 -1.5 1.8
Muleshoe  06:25 PM 72.4 86.5 -14.1 58.6 42.6 16 1.9
Morton  06:25 PM 76.2 87 -10.7 63.8 39.4 24.4 1.4
O'Donnell  06:25 PM 81 80 1 62 63.6 -1.6 0.9
Seagraves  06:25 PM 83.6 83.5 0.2 64.2 65.4 -1.3 1.6
Amherst  06:25 PM 62.7 80.1 -17.5 58.6 61.4 -2.8 2
Plains  06:25 PM 80.5 88.9 -8.4 65.9 42.8 23.1 1.8
Lamesa  06:25 PM 81.8 80 1.8 65.3 66.7 -1.3 0.9
Hart  06:25 PM 64.7 76.2 -11.4 61.1 62 -1 2.7
Friona  06:25 PM 73.7 85.8 -12.1 62.4 29 33.5 1.7
Dimmitt  06:25 PM 69.3 79.1 -9.9 59.5 61.9 -2.4 2.3
Tulia  06:25 PM 65 67 -1.9 60.8 56.1 4.7 3.6
Silverton  06:25 PM 69.7 61.5 8.3 66.1 59.9 6.2 1.9
Post  06:25 PM 82.8 79.5 3.3 65.8 66.8 -1 0.2
Seminole  06:25 PM 82.7 84.5 -1.9 62 63.2 -1.2 1.5
Gail  06:25 PM 82.5 79.8 2.8 65.3 65.4 -0.1 0.8
White River Lake  06:25 PM 78.7 67.2 11.4 66.3 60.2 6.1 0.4
Graham  06:25 PM 80.7 78.3 2.3 65.2 66.4 -1.2 0.4
Sundown  06:25 PM 80.1 87.4 -7.3 64.3 51.9 12.5 1.8
Anton  06:25 PM 76.9 71.2 5.7 65.3 61.7 3.6 2.8
Fluvanna  06:25 PM 82.4 79.3 3 64.7 64.7 -0.1 0.6
Spur  06:25 PM 79.9 66.5 13.4 66.8 59.2 7.7 0
Northwest Lubbock  06:25 PM 78.7 64.1 14.5 65.9 62.7 3.2 1.8
Guthrie  06:25 PM 81.2 66.8 14.3 67.4 60.3 7.1 -1
Clarendon  06:25 PM 67.8 65.8 1.9 64 63.4 0.6 2.5
Paducah  06:25 PM 79.9 63.1 16.8 68.7 61.4 7.3 -0.5
Snyder  06:25 PM 83.3 78 5.3 66.5 66.6 -0.1 0.1
Memphis  06:25 PM 76.1 71.5 4.6 69.4 64.1 5.3 1.2
Jayton  06:25 PM 84.1 79.5 4.7 67.7 66.3 1.4 -0.2
Pampa  06:25 PM 59.4 65.6 -6.2 57.2 63.1 -5.9 1.3
Aspermont  06:25 PM 84.3 80.3 4 70.3 68.7 1.6 -0.2
Hereford  06:25 PM 72.5 86.8 -14.3 61.9 26.4 35.5 1.9
Goodlett  06:25 PM 81.3 62.1 19.2 68.9 60.7 8.2 -1.2
McLean  06:25 PM 60.4 66.3 -5.9 59.1 63.8 -4.7 3.5
Denver City  06:25 PM 81.4 89.9 -8.6 62.9 34.5 28.4 1.8
Lake Alan Henry  06:25 PM 83.4 80.7 2.7 66.1 68.3 -2.2 -0.3
Wolfforth  06:25 PM 80.3 68.1 12.3 65.9 61.9 4 1.7
Andrews  06:25 PM 81.6 81.8 -0.1 62.8 64.8 -2 0.6
Turkey  06:25 PM 76.2 61.6 14.6 68.7 59.1 9.6 1.5
Childress  06:25 PM 79.6 62.7 16.9 68.2 59.3 8.8 0.5
Tatum  06:25 PM 83.6 90 -6.4 59.4 21 38.4 0.9
Northfield  06:25 PM 78.2 62.4 15.8 67.2 60 7.2 0.5
Dora  06:25 PM 83.3 88.1 -4.8 43.2 11.2 32 0.1
Northwest San Angelo  06:25 PM 82.3 80.5 1.7 63.5 62.8 0.7 0.5
Saint Lawrence  06:25 PM 75 74.7 0.3 68.4 66.9 1.5 0.8
Haskell  06:25 PM 84.7 82 2.8 68 66.2 1.9 0.3
Wall  06:25 PM 85.1 83.4 1.6 66.8 66.3 0.5 0.4
Seymour  06:25 PM 84.3 82.1 2.2 69.1 67.8 1.3 0.8
Knox City  06:25 PM 84.6 82.3 2.3 69.5 67.7 1.8 -0.1
Guadalupe Mtns Park  06:25 PM 84.8 81.6 3.2 23.2 19.3 3.8 0.5
Caprock Canyons   06:25 PM 69.6 61.1 8.6 66.5 58.7 7.8 1.1
Odell  06:25 PM 82.6 78.2 4.4 70.2 70.2 0 -0.7
Coyanosa  06:25 PM 75.8 80.4 -4.6 62.2 61.7 0.5 0.8
Big Lake  06:25 PM 78.4 75.3 3.1 67 66.5 0.5 -0.1
Junction  06:25 PM 86.7 83.8 2.9 66.2 67.1 -0.8 0.9
Hobbs  06:25 PM 84.7 90.3 -5.6 60.5 23.3 37.2 1.5
Canadian  06:25 PM 61 64.8 -3.8 60.7 64.7 -4 4.6
Palo Duro Canyon State Park Rim  06:25 PM 63.2 75.1 -11.9 60.3 66.6 -6.2 2.4
Bootleg  06:25 PM 75.6 82.9 -7.3 63 25.9 37 0.5
Sterling City  06:25 PM 77.4 77.3 0.1 67.3 66.9 0.5 0.6
Mertzon  06:25 PM 80.5 77.7 2.8 66.9 67 -0.2 0.5
Persimmon Gap  06:25 PM 97.5 87.4 10.1 60.1 64.5 -4.4 0.1
Weinert  06:25 PM 83.9 81.6 2.4 69.7 68.9 0.8 0.4
Claude 12 Southwest  06:25 PM 63.5 69.7 -6.2 61.8 69.2 -7.5 2
Amarillo 7 South Southeast  06:15 PM 66 76 -10 66 66.3 -0.3 1.4
Umbarger  06:25 PM 70.1 76.4 -6.3 64 65.2 -1.2 1.9
Lomax  06:25 PM 78.9 78.9 0 67.7 66.8 0.9 0.6
Amarillo 9 North Northeast  06:25 PM 67.4 75.9 -8.5 61.7 66.3 -4.6 1.6
Aiken  06:25 PM 63.4 61.1 2.3 62.5 59.3 3.1 3.1
Sweetwater  06:25 PM 79.4 77.2 2.2 67.8 66.7 1.1 1.8
Dozier  06:25 PM 69.2 71.7 -2.5 69 69.6 -0.5 3.4
Amarillo 15 North Northwest  06:25 PM 70.6 76.8 -6.2 63 66 -3 1.3
Menard  06:25 PM 84.4 81.4 3 66.8 67.6 -0.8 0.4
Tarzan  06:25 PM 82.9 79.9 2.9 67.4 67.2 0.2 0.7
Goodnight  06:25 PM 62 66.5 -4.4 62.1 66.5 -4.4 2.7
Boys Ranch   06:25 PM 73.9 84 -10.1 64.1 48.5 15.6 1.8
Fort McKavett  06:25 PM 84.5 80.8 3.7 65.4 66.1 -0.7 0.8
Fort Chadbourne  06:25 PM 80.3 79.1 1.3 70 68.2 1.8 1.3
Palo Duro Canyon State Park Floor  06:25 PM 66.6 76.3 -9.8 63.2 67.4 -4.2 2.9
Fort Lancaster  06:25 PM 86.6 81.4 5.2 68.1 67.9 0.1 0
Dell City 1N  06:25 PM 93.4 89.2 4.2 34.8 28.5 6.3 -0.4
Clyde  06:25 PM 80.7 79.3 1.4 70.6 69.1 1.5 0.7
Snyder SSW  06:25 PM 83.2 78.3 4.8 67.2 67.9 -0.7 -0.1
Panhandle  06:25 PM 62 70.6 -8.7 59.5 66.3 -6.8 1
Vigo Park  06:25 PM 65.2 67.1 -1.9 60.8 66 -5.2 2.7
Welch  06:25 PM 83.8 83.8 0 66.3 67.8 -1.5 1.3
Throckmorton  01:15 PM 82.4 82.7 -0.3 70.8 71.1 -0.3 0
Sierra Blanca  06:25 PM 91.2 88.5 2.7 27.8 21 6.7 0.3
Fort Lewis CO  06:25 PM 65.8 54.1 11.7 21.1 26.4 -5.4 -0.8
New Home  06:25 PM 80.6 80.3 0.3 67 68.1 -1.1 2.2
McCamey  06:25 PM 63.5 72.6 -9.1 62.3 69.6 -7.3 3.5
Stamford  06:25 PM 85.9 83.2 2.7 70.6 68.8 1.9 0.6
Crowell  06:25 PM 84.5 69.5 15 70.4 64.4 6 -1
Stinnett  06:25 PM 63.6 74.2 -10.5 58.9 65.6 -6.8 1.8
Colorado City  06:25 PM 80.7 78.3 2.4 69 68.9 0.2 0.4
Happy  06:25 PM 65 74.6 -9.6 60.6 66.6 -6 3.1
Endee  06:25 PM 77.9 84.1 -6.2 64.1 29.6 34.5 0
JA Ranch  06:25 PM 69.3 67.2 2.1 67.1 66.6 0.5 3
Adrian  06:25 PM 71.5 83.1 -11.6 63.4 26.8 36.5 0.5
Lesley  06:25 PM 72.6 67.4 5.2 70.4 63.1 7.3 1.3
Earth  06:25 PM 68.3 87.2 -18.8 60 45.6 14.4 2.1
Van Horn  06:25 PM 93.5 92.1 1.4 25.8 17.2 8.6 0.4
Rotan  06:25 PM 85.2 80.4 4.8 68.3 67.4 0.9 -0.1
Fritch  06:25 PM 69.5 75.5 -6 61.3 64.7 -3.4 1.2
Estelline  06:25 PM 80.1 66.9 13.2 70 61 9 0.6
Crane  06:25 PM 70.5 78.5 -8 65 66.9 -1.9 1.9
Hackberry  06:25 PM 82.4 63.3 19.1 70.5 63 7.5 -1.8
Romero 11 SSW  06:25 PM 76.7 83.5 -6.8 60 26.9 33.1 0.7
Palo Duro Reservoir 1NW  06:25 PM 67.5 78 -10.5 58.5 64 -5.4 1.2
South Plains 3ENE  06:25 PM 73.1 59.9 13.1 69 58.7 10.2 1.3
Lake McClellan 2NW  06:25 PM 60.7 63.9 -3.3 58.8 63.6 -4.8 2.7
Segovia 7SSW  06:25 PM 83.6 81.3 2.3 64.9 66.4 -1.5 0.7
Castolon 1NW BBNP  06:25 PM 106.7 102.8 3.9 30.9 41.4 -10.5 0.7
Smyer  06:25 PM 79.5 70.4 9.1 67.7 63.9 3.9 2
Olton  06:25 PM M 73.5 M -17966.2 61.2 M 2.7

West Texas Mesonet Home   Site Map/Menu  NWS Lubbock Soil Data  Daily Summary Page  24hr Precip  72hr Precip  Google Plot